Date,TemperatureHighF,TemperatureAvgF,TemperatureLowF,DewpointHighF,DewpointAvgF,DewpointLowF,HumidityHigh,HumidityAvg,HumidityLow,PressureMaxIn,PressureMinIn,WindSpeedMaxMPH,WindSpeedAvgMPH,GustSpeedMaxMPH,PrecipitationSumIn
2013-3-1,39,36,32,26,22,17,66,57,51,17.72,17.72,14,0,14,0.00
2013-3-2,49,39,27,24,19,14,57,45,37,17.72,17.72,13,0,13,0.00
2013-3-3,62,48,32,33,26,16,58,42,34,17.72,17.72,17,2,17,0.00
2013-3-4,72,58,46,43,36,28,62,45,32,17.72,17.72,22,1,22,0.00
2013-3-5,52,45,36,34,24,17,75,46,33,17.72,17.72,25,4,25,0.04
2013-3-6,55,43,28,27,21,14,56,42,33,17.72,17.72,0,0,0,0.00
2013-3-7,65,52,37,33,27,21,55,38,26,17.72,17.72,21,2,21,0.00
2013-3-8,59,53,47,41,34,26,61,47,37,17.72,17.72,17,1,17,0.00
2013-3-9,64,59,55,58,47,34,95,68,40,17.72,17.72,22,1,22,0.35
2013-3-10,56,44,33,54,38,23,93,78,66,17.72,17.72,21,1,21,0.04
2013-3-11,54,43,31,29,24,17,67,48,30,17.72,17.72,15,1,16,0.00
2013-3-12,62,49,39,41,28,17,79,45,31,17.72,17.72,17,1,17,0.00
2013-3-13,59,47,33,31,22,17,55,38,27,17.72,17.72,0,0,0,0.00
2013-3-14,79,61,42,44,33,21,49,35,27,17.72,17.72,17,2,17,0.00
2013-3-15,85,70,53,49,43,38,67,40,25,17.72,17.72,17,2,17,0.00
2013-3-16,78,67,56,48,43,37,54,42,34,17.72,17.72,15,0,15,0.00
2013-3-17,46,45,45,43,42,42,91,89,88,17.72,17.72,0,0,0,0.00
2013-3-18,60,49,41,44,36,23,91,65,35,17.72,17.72,15,0,15,0.00
2013-3-19,62,50,40,29,24,21,50,37,27,17.72,17.72,9,0,9,0.00
2013-3-20,55,46,35,33,24,16,72,45,29,17.72,17.72,15,0,15,0.00
2013-3-21,42,40,37,34,24,17,81,54,38,17.72,17.72,5,0,8,0.04
2013-3-22,48,42,38,38,36,33,87,78,68,17.72,17.72,6,0,6,0.08
2013-3-23,44,42,39,42,38,34,95,89,77,17.72,17.72,15,0,15,0.04
2013-3-24,66,38,31,38,27,16,92,68,32,17.72,17.72,21,3,21,0.08
2013-3-25,42,35,28,21,18,15,65,50,40,17.72,17.72,17,2,17,0.00
2013-3-26,54,42,26,27,20,14,63,44,32,17.72,17.72,10,0,10,0.00
2013-3-27,66,52,36,34,26,19,52,39,28,17.72,17.72,20,2,20,0.00
2013-3-28,72,61,48,49,39,26,61,45,36,17.72,17.72,17,1,17,0.00
2013-3-29,70,63,56,57,53,48,90,70,59,17.72,17.72,9,0,9,0.24
2013-3-30,58,57,55,56,54,52,95,91,90,17.72,17.72,14,0,14,0.87